sensor_id;sensor_type;location;lat;lon;timestamp;P1;durP1;ratioP1;P2;durP2;ratioP2
70213;SDS011;60138;55.808;37.078;2024-03-23T00:55:41;33.70;;;18.60;;
70213;SDS011;60138;55.808;37.078;2024-03-23T00:58:07;36.72;;;19.35;;
70213;SDS011;60138;55.808;37.078;2024-03-23T01:00:33;38.92;;;19.50;;
70213;SDS011;60138;55.808;37.078;2024-03-23T01:02:59;38.47;;;19.60;;
70213;SDS011;60138;55.808;37.078;2024-03-23T01:05:25;41.03;;;20.15;;
70213;SDS011;60138;55.808;37.078;2024-03-23T01:07:51;35.15;;;19.38;;
70213;SDS011;60138;55.808;37.078;2024-03-23T01:10:17;39.67;;;19.13;;
70213;SDS011;60138;55.808;37.078;2024-03-23T01:12:43;34.10;;;19.63;;
70213;SDS011;60138;55.808;37.078;2024-03-23T01:15:09;37.90;;;18.45;;
70213;SDS011;60138;55.808;37.078;2024-03-23T01:17:34;39.88;;;19.65;;
70213;SDS011;60138;55.808;37.078;2024-03-23T01:20:00;37.65;;;21.63;;
70213;SDS011;60138;55.808;37.078;2024-03-23T01:22:29;40.33;;;20.33;;
70213;SDS011;60138;55.808;37.078;2024-03-23T01:24:55;36.63;;;19.70;;
70213;SDS011;60138;55.808;37.078;2024-03-23T01:27:21;39.42;;;19.65;;
70213;SDS011;60138;55.808;37.078;2024-03-23T01:29:47;43.95;;;22.45;;
70213;SDS011;60138;55.808;37.078;2024-03-23T01:32:13;36.37;;;17.63;;
70213;SDS011;60138;55.808;37.078;2024-03-23T01:34:39;41.90;;;19.05;;
70213;SDS011;60138;55.808;37.078;2024-03-23T01:37:05;39.60;;;19.73;;
70213;SDS011;60138;55.808;37.078;2024-03-23T01:39:30;41.58;;;20.80;;
70213;SDS011;60138;55.808;37.078;2024-03-23T01:41:56;38.60;;;19.40;;
70213;SDS011;60138;55.808;37.078;2024-03-23T01:44:24;39.78;;;21.30;;
70213;SDS011;60138;55.808;37.078;2024-03-23T01:46:49;46.35;;;21.55;;
70213;SDS011;60138;55.808;37.078;2024-03-23T01:49:15;39.33;;;22.03;;
70213;SDS011;60138;55.808;37.078;2024-03-23T01:51:41;42.67;;;21.65;;
70213;SDS011;60138;55.808;37.078;2024-03-23T01:54:07;42.80;;;21.17;;
70213;SDS011;60138;55.808;37.078;2024-03-23T01:56:33;42.40;;;21.83;;
70213;SDS011;60138;55.808;37.078;2024-03-23T01:58:59;41.75;;;20.50;;
70213;SDS011;60138;55.808;37.078;2024-03-23T02:01:25;40.07;;;19.37;;
70213;SDS011;60138;55.808;37.078;2024-03-23T02:03:51;42.58;;;21.80;;
70213;SDS011;60138;55.808;37.078;2024-03-23T02:06:16;39.80;;;19.17;;
70213;SDS011;60138;55.808;37.078;2024-03-23T02:08:43;43.25;;;20.65;;
70213;SDS011;60138;55.808;37.078;2024-03-23T02:11:09;39.33;;;21.42;;
70213;SDS011;60138;55.808;37.078;2024-03-23T02:13:34;38.33;;;20.67;;
70213;SDS011;60138;55.808;37.078;2024-03-23T02:16:00;39.38;;;22.05;;
70213;SDS011;60138;55.808;37.078;2024-03-23T02:18:26;40.73;;;21.47;;
70213;SDS011;60138;55.808;37.078;2024-03-23T02:20:52;40.85;;;21.15;;
70213;SDS011;60138;55.808;37.078;2024-03-23T02:23:17;41.70;;;19.73;;
70213;SDS011;60138;55.808;37.078;2024-03-23T02:25:43;43.65;;;20.67;;
70213;SDS011;60138;55.808;37.078;2024-03-23T02:28:10;37.22;;;19.52;;
70213;SDS011;60138;55.808;37.078;2024-03-23T02:30:38;39.38;;;20.67;;
70213;SDS011;60138;55.808;37.078;2024-03-23T02:33:04;44.33;;;21.33;;
70213;SDS011;60138;55.808;37.078;2024-03-23T02:35:30;40.43;;;21.13;;
70213;SDS011;60138;55.808;37.078;2024-03-23T02:37:55;37.80;;;21.27;;
70213;SDS011;60138;55.808;37.078;2024-03-23T02:40:22;37.63;;;20.05;;
70213;SDS011;60138;55.808;37.078;2024-03-23T02:42:49;44.63;;;20.03;;
70213;SDS011;60138;55.808;37.078;2024-03-23T02:45:15;40.13;;;21.77;;
70213;SDS011;60138;55.808;37.078;2024-03-23T02:47:40;39.10;;;21.40;;
70213;SDS011;60138;55.808;37.078;2024-03-23T02:50:06;41.00;;;21.33;;
70213;SDS011;60138;55.808;37.078;2024-03-23T02:52:32;40.97;;;20.95;;
70213;SDS011;60138;55.808;37.078;2024-03-23T02:54:58;42.57;;;21.67;;
70213;SDS011;60138;55.808;37.078;2024-03-23T02:57:24;42.58;;;21.40;;
70213;SDS011;60138;55.808;37.078;2024-03-23T02:59:49;40.83;;;20.03;;
70213;SDS011;60138;55.808;37.078;2024-03-23T03:02:15;45.93;;;20.47;;
70213;SDS011;60138;55.808;37.078;2024-03-23T03:04:41;39.80;;;21.05;;
70213;SDS011;60138;55.808;37.078;2024-03-23T03:07:07;46.30;;;22.25;;
70213;SDS011;60138;55.808;37.078;2024-03-23T03:09:33;46.80;;;22.07;;
70213;SDS011;60138;55.808;37.078;2024-03-23T03:11:59;37.40;;;21.20;;
70213;SDS011;60138;55.808;37.078;2024-03-23T03:14:24;38.47;;;20.00;;
70213;SDS011;60138;55.808;37.078;2024-03-23T03:16:50;43.38;;;21.50;;
70213;SDS011;60138;55.808;37.078;2024-03-23T03:19:16;41.03;;;22.27;;
70213;SDS011;60138;55.808;37.078;2024-03-23T03:21:42;42.67;;;21.17;;
70213;SDS011;60138;55.808;37.078;2024-03-23T03:24:10;40.20;;;22.02;;
70213;SDS011;60138;55.808;37.078;2024-03-23T03:26:35;44.53;;;20.93;;
70213;SDS011;60138;55.808;37.078;2024-03-23T03:29:02;41.15;;;22.20;;
70213;SDS011;60138;55.808;37.078;2024-03-23T03:31:27;33.70;;;18.80;;
70213;SDS011;60138;55.808;37.078;2024-03-23T03:33:53;42.07;;;19.77;;
70213;SDS011;60138;55.808;37.078;2024-03-23T03:36:19;37.83;;;19.57;;
70213;SDS011;60138;55.808;37.078;2024-03-23T03:38:45;37.75;;;19.92;;
70213;SDS011;60138;55.808;37.078;2024-03-23T03:41:10;36.70;;;19.40;;
70213;SDS011;60138;55.808;37.078;2024-03-23T03:43:36;38.93;;;19.57;;
70213;SDS011;60138;55.808;37.078;2024-03-23T03:46:02;41.72;;;21.33;;
70213;SDS011;60138;55.808;37.078;2024-03-23T03:48:28;40.58;;;21.48;;
70213;SDS011;60138;55.808;37.078;2024-03-23T03:50:54;42.10;;;20.88;;
70213;SDS011;60138;55.808;37.078;2024-03-23T03:53:20;39.25;;;21.05;;
70213;SDS011;60138;55.808;37.078;2024-03-23T03:55:45;40.37;;;19.63;;
70213;SDS011;60138;55.808;37.078;2024-03-23T03:58:11;41.90;;;21.92;;
70213;SDS011;60138;55.808;37.078;2024-03-23T04:00:37;42.23;;;21.97;;
70213;SDS011;60138;55.808;37.078;2024-03-23T04:03:03;43.22;;;21.23;;
70213;SDS011;60138;55.808;37.078;2024-03-23T04:05:28;43.27;;;20.57;;
70213;SDS011;60138;55.808;37.078;2024-03-23T04:07:54;38.45;;;20.10;;
70213;SDS011;60138;55.808;37.078;2024-03-23T04:10:20;41.20;;;20.40;;
70213;SDS011;60138;55.808;37.078;2024-03-23T04:12:47;37.03;;;19.55;;
70213;SDS011;60138;55.808;37.078;2024-03-23T04:15:13;41.35;;;19.70;;
70213;SDS011;60138;55.808;37.078;2024-03-23T04:17:39;42.20;;;20.98;;
70213;SDS011;60138;55.808;37.078;2024-03-23T04:20:05;38.27;;;20.63;;
70213;SDS011;60138;55.808;37.078;2024-03-23T04:22:31;39.38;;;20.45;;
70213;SDS011;60138;55.808;37.078;2024-03-23T04:24:56;41.30;;;20.42;;
70213;SDS011;60138;55.808;37.078;2024-03-23T04:27:23;38.03;;;20.33;;
70213;SDS011;60138;55.808;37.078;2024-03-23T04:29:49;35.45;;;21.13;;
70213;SDS011;60138;55.808;37.078;2024-03-23T04:32:16;36.28;;;20.55;;
70213;SDS011;60138;55.808;37.078;2024-03-23T04:34:41;40.35;;;20.40;;
70213;SDS011;60138;55.808;37.078;2024-03-23T04:37:07;35.50;;;19.43;;
70213;SDS011;60138;55.808;37.078;2024-03-23T04:39:33;39.75;;;20.38;;
70213;SDS011;60138;55.808;37.078;2024-03-23T04:41:59;39.65;;;20.00;;
70213;SDS011;60138;55.808;37.078;2024-03-23T04:44:25;38.15;;;19.92;;
70213;SDS011;60138;55.808;37.078;2024-03-23T04:46:50;37.67;;;19.40;;
70213;SDS011;60138;55.808;37.078;2024-03-23T04:49:16;35.50;;;19.08;;
70213;SDS011;60138;55.808;37.078;2024-03-23T04:51:42;38.50;;;19.67;;
70213;SDS011;60138;55.808;37.078;2024-03-23T04:54:07;33.17;;;18.55;;
70213;SDS011;60138;55.808;37.078;2024-03-23T04:56:33;38.87;;;20.23;;
70213;SDS011;60138;55.808;37.078;2024-03-23T04:58:59;36.75;;;20.08;;
70213;SDS011;60138;55.808;37.078;2024-03-23T05:01:25;36.10;;;19.87;;
70213;SDS011;60138;55.808;37.078;2024-03-23T05:03:51;34.28;;;18.33;;
70213;SDS011;60138;55.808;37.078;2024-03-23T05:06:17;35.97;;;19.33;;
70213;SDS011;60138;55.808;37.078;2024-03-23T05:08:45;33.63;;;18.00;;
70213;SDS011;60138;55.808;37.078;2024-03-23T05:11:11;33.65;;;17.67;;
70213;SDS011;60138;55.808;37.078;2024-03-23T05:13:37;31.33;;;18.02;;
70213;SDS011;60138;55.808;37.078;2024-03-23T05:16:03;30.60;;;17.53;;
70213;SDS011;60138;55.808;37.078;2024-03-23T05:18:28;33.00;;;17.63;;
70213;SDS011;60138;55.808;37.078;2024-03-23T05:20:58;31.80;;;18.00;;
70213;SDS011;60138;55.808;37.078;2024-03-23T05:23:24;33.00;;;17.77;;
70213;SDS011;60138;55.808;37.078;2024-03-23T05:25:53;27.98;;;16.63;;
70213;SDS011;60138;55.808;37.078;2024-03-23T05:28:19;31.45;;;16.08;;
70213;SDS011;60138;55.808;37.078;2024-03-23T05:30:55;36.47;;;18.38;;
70213;SDS011;60138;55.808;37.078;2024-03-23T05:33:21;31.07;;;16.17;;
70213;SDS011;60138;55.808;37.078;2024-03-23T05:35:55;29.92;;;16.52;;
70213;SDS011;60138;55.808;37.078;2024-03-23T05:38:22;27.42;;;17.52;;
70213;SDS011;60138;55.808;37.078;2024-03-23T05:40:54;27.37;;;15.10;;
70213;SDS011;60138;55.808;37.078;2024-03-23T05:43:20;27.13;;;15.80;;
70213;SDS011;60138;55.808;37.078;2024-03-23T05:45:53;28.73;;;16.90;;
70213;SDS011;60138;55.808;37.078;2024-03-23T05:48:22;30.30;;;16.83;;
70213;SDS011;60138;55.808;37.078;2024-03-23T05:50:48;30.00;;;16.60;;
70213;SDS011;60138;55.808;37.078;2024-03-23T05:53:15;27.67;;;15.63;;
70213;SDS011;60138;55.808;37.078;2024-03-23T05:55:41;26.67;;;15.07;;
70213;SDS011;60138;55.808;37.078;2024-03-23T05:58:07;29.75;;;15.98;;
70213;SDS011;60138;55.808;37.078;2024-03-23T06:00:33;25.80;;;15.95;;
70213;SDS011;60138;55.808;37.078;2024-03-23T06:02:59;26.33;;;14.57;;
70213;SDS011;60138;55.808;37.078;2024-03-23T06:05:25;24.25;;;14.10;;
70213;SDS011;60138;55.808;37.078;2024-03-23T06:07:51;24.40;;;13.77;;
70213;SDS011;60138;55.808;37.078;2024-03-23T06:10:17;23.33;;;13.77;;
70213;SDS011;60138;55.808;37.078;2024-03-23T06:12:43;22.02;;;13.73;;
70213;SDS011;60138;55.808;37.078;2024-03-23T06:15:09;21.10;;;12.60;;
70213;SDS011;60138;55.808;37.078;2024-03-23T06:17:34;19.92;;;12.23;;
70213;SDS011;60138;55.808;37.078;2024-03-23T06:20:00;20.30;;;11.45;;
70213;SDS011;60138;55.808;37.078;2024-03-23T06:22:26;19.33;;;12.68;;
70213;SDS011;60138;55.808;37.078;2024-03-23T06:24:52;20.77;;;12.98;;
70213;SDS011;60138;55.808;37.078;2024-03-23T06:27:20;21.63;;;12.20;;
70213;SDS011;60138;55.808;37.078;2024-03-23T06:29:46;20.75;;;13.68;;
70213;SDS011;60138;55.808;37.078;2024-03-23T06:32:11;21.07;;;12.93;;
70213;SDS011;60138;55.808;37.078;2024-03-23T06:34:37;19.85;;;12.10;;
70213;SDS011;60138;55.808;37.078;2024-03-23T06:37:03;17.97;;;11.50;;
70213;SDS011;60138;55.808;37.078;2024-03-23T06:39:28;18.45;;;11.60;;
70213;SDS011;60138;55.808;37.078;2024-03-23T06:41:54;21.23;;;11.70;;
70213;SDS011;60138;55.808;37.078;2024-03-23T06:44:20;19.50;;;11.90;;
70213;SDS011;60138;55.808;37.078;2024-03-23T06:46:46;16.92;;;11.40;;
70213;SDS011;60138;55.808;37.078;2024-03-23T06:49:12;18.63;;;11.03;;
70213;SDS011;60138;55.808;37.078;2024-03-23T06:51:38;20.23;;;10.90;;
70213;SDS011;60138;55.808;37.078;2024-03-23T06:54:04;16.47;;;11.43;;
70213;SDS011;60138;55.808;37.078;2024-03-23T06:56:30;16.95;;;12.05;;
70213;SDS011;60138;55.808;37.078;2024-03-23T06:58:56;16.13;;;11.03;;
70213;SDS011;60138;55.808;37.078;2024-03-23T07:01:22;18.05;;;11.55;;
70213;SDS011;60138;55.808;37.078;2024-03-23T07:03:48;15.45;;;10.45;;
70213;SDS011;60138;55.808;37.078;2024-03-23T07:06:14;16.70;;;11.03;;
70213;SDS011;60138;55.808;37.078;2024-03-23T07:08:39;15.32;;;9.85;;
70213;SDS011;60138;55.808;37.078;2024-03-23T07:11:05;17.07;;;10.63;;
70213;SDS011;60138;55.808;37.078;2024-03-23T07:13:31;16.23;;;9.73;;
70213;SDS011;60138;55.808;37.078;2024-03-23T07:15:57;17.10;;;9.50;;
70213;SDS011;60138;55.808;37.078;2024-03-23T07:18:22;15.07;;;9.77;;
70213;SDS011;60138;55.808;37.078;2024-03-23T07:20:52;12.38;;;9.02;;
70213;SDS011;60138;55.808;37.078;2024-03-23T07:23:24;14.32;;;10.07;;
70213;SDS011;60138;55.808;37.078;2024-03-23T07:25:56;13.13;;;9.00;;
70213;SDS011;60138;55.808;37.078;2024-03-23T07:28:22;16.27;;;8.80;;
70213;SDS011;60138;55.808;37.078;2024-03-23T07:30:48;14.73;;;9.90;;
70213;SDS011;60138;55.808;37.078;2024-03-23T07:33:24;13.40;;;7.87;;
70213;SDS011;60138;55.808;37.078;2024-03-23T07:35:49;14.85;;;9.98;;
70213;SDS011;60138;55.808;37.078;2024-03-23T07:38:15;13.40;;;9.90;;
70213;SDS011;60138;55.808;37.078;2024-03-23T07:40:41;12.45;;;8.40;;
70213;SDS011;60138;55.808;37.078;2024-03-23T07:43:06;16.60;;;8.60;;
70213;SDS011;60138;55.808;37.078;2024-03-23T07:45:32;14.35;;;10.82;;
70213;SDS011;60138;55.808;37.078;2024-03-23T07:47:58;13.73;;;8.90;;
70213;SDS011;60138;55.808;37.078;2024-03-23T07:50:23;13.57;;;10.15;;
70213;SDS011;60138;55.808;37.078;2024-03-23T07:52:49;13.25;;;9.63;;
70213;SDS011;60138;55.808;37.078;2024-03-23T07:55:15;12.05;;;8.85;;
70213;SDS011;60138;55.808;37.078;2024-03-23T07:57:41;14.80;;;8.93;;
70213;SDS011;60138;55.808;37.078;2024-03-23T08:00:06;13.53;;;8.67;;
70213;SDS011;60138;55.808;37.078;2024-03-23T08:02:32;12.20;;;8.75;;
70213;SDS011;60138;55.808;37.078;2024-03-23T08:04:58;14.60;;;8.45;;
70213;SDS011;60138;55.808;37.078;2024-03-23T08:07:24;14.47;;;8.80;;
70213;SDS011;60138;55.808;37.078;2024-03-23T08:09:50;13.68;;;8.82;;
70213;SDS011;60138;55.808;37.078;2024-03-23T08:12:15;11.93;;;8.57;;
70213;SDS011;60138;55.808;37.078;2024-03-23T08:14:41;11.88;;;8.30;;
70213;SDS011;60138;55.808;37.078;2024-03-23T08:17:07;10.73;;;8.30;;
70213;SDS011;60138;55.808;37.078;2024-03-23T08:19:32;12.50;;;8.02;;
70213;SDS011;60138;55.808;37.078;2024-03-23T08:21:58;13.27;;;8.73;;
70213;SDS011;60138;55.808;37.078;2024-03-23T08:24:24;12.20;;;8.70;;
70213;SDS011;60138;55.808;37.078;2024-03-23T08:26:49;11.77;;;8.27;;
70213;SDS011;60138;55.808;37.078;2024-03-23T08:29:15;13.33;;;9.20;;
70213;SDS011;60138;55.808;37.078;2024-03-23T08:31:41;13.80;;;9.35;;
70213;SDS011;60138;55.808;37.078;2024-03-23T08:34:06;12.20;;;8.27;;
70213;SDS011;60138;55.808;37.078;2024-03-23T08:36:32;14.07;;;8.93;;
70213;SDS011;60138;55.808;37.078;2024-03-23T08:38:58;13.80;;;9.40;;
70213;SDS011;60138;55.808;37.078;2024-03-23T08:41:24;12.70;;;8.38;;
70213;SDS011;60138;55.808;37.078;2024-03-23T08:43:49;11.97;;;8.27;;
70213;SDS011;60138;55.808;37.078;2024-03-23T08:46:16;12.18;;;8.55;;
70213;SDS011;60138;55.808;37.078;2024-03-23T08:48:42;14.43;;;9.73;;
70213;SDS011;60138;55.808;37.078;2024-03-23T08:51:10;13.80;;;9.25;;
70213;SDS011;60138;55.808;37.078;2024-03-23T08:53:37;12.25;;;8.60;;
70213;SDS011;60138;55.808;37.078;2024-03-23T08:56:04;14.00;;;8.68;;
70213;SDS011;60138;55.808;37.078;2024-03-23T08:58:32;13.40;;;8.77;;
70213;SDS011;60138;55.808;37.078;2024-03-23T09:01:19;13.65;;;10.00;;
70213;SDS011;60138;55.808;37.078;2024-03-23T09:03:44;13.65;;;9.45;;
70213;SDS011;60138;55.808;37.078;2024-03-23T09:06:10;11.98;;;8.60;;
70213;SDS011;60138;55.808;37.078;2024-03-23T09:08:38;11.35;;;8.80;;
70213;SDS011;60138;55.808;37.078;2024-03-23T09:11:04;12.13;;;8.30;;
70213;SDS011;60138;55.808;37.078;2024-03-23T09:13:30;12.55;;;8.07;;
70213;SDS011;60138;55.808;37.078;2024-03-23T09:15:56;13.38;;;8.52;;
70213;SDS011;60138;55.808;37.078;2024-03-23T09:18:22;14.20;;;8.30;;
70213;SDS011;60138;55.808;37.078;2024-03-23T09:20:48;12.73;;;8.05;;
70213;SDS011;60138;55.808;37.078;2024-03-23T09:23:13;13.07;;;9.30;;
70213;SDS011;60138;55.808;37.078;2024-03-23T09:25:39;12.63;;;8.93;;
70213;SDS011;60138;55.808;37.078;2024-03-23T09:28:06;12.35;;;8.70;;
70213;SDS011;60138;55.808;37.078;2024-03-23T09:30:32;11.90;;;7.97;;
70213;SDS011;60138;55.808;37.078;2024-03-23T09:32:58;11.57;;;7.75;;
70213;SDS011;60138;55.808;37.078;2024-03-23T09:35:24;10.93;;;7.57;;
70213;SDS011;60138;55.808;37.078;2024-03-23T09:37:50;12.68;;;8.88;;
70213;SDS011;60138;55.808;37.078;2024-03-23T09:40:16;12.13;;;8.63;;
70213;SDS011;60138;55.808;37.078;2024-03-23T09:42:42;12.75;;;8.15;;
70213;SDS011;60138;55.808;37.078;2024-03-23T09:45:20;11.70;;;8.55;;
70213;SDS011;60138;55.808;37.078;2024-03-23T09:47:47;13.18;;;9.43;;
70213;SDS011;60138;55.808;37.078;2024-03-23T09:50:16;12.17;;;7.93;;
70213;SDS011;60138;55.808;37.078;2024-03-23T09:52:41;12.02;;;8.32;;
70213;SDS011;60138;55.808;37.078;2024-03-23T09:55:10;12.13;;;8.38;;
70213;SDS011;60138;55.808;37.078;2024-03-23T09:57:36;13.00;;;8.47;;
70213;SDS011;60138;55.808;37.078;2024-03-23T10:00:02;12.32;;;8.27;;
70213;SDS011;60138;55.808;37.078;2024-03-23T10:02:33;13.65;;;8.95;;
70213;SDS011;60138;55.808;37.078;2024-03-23T10:05:00;12.20;;;8.80;;
70213;SDS011;60138;55.808;37.078;2024-03-23T10:07:26;14.05;;;9.93;;
70213;SDS011;60138;55.808;37.078;2024-03-23T10:09:52;11.48;;;8.60;;
70213;SDS011;60138;55.808;37.078;2024-03-23T10:12:18;11.33;;;8.63;;
70213;SDS011;60138;55.808;37.078;2024-03-23T10:14:44;13.40;;;9.10;;
70213;SDS011;60138;55.808;37.078;2024-03-23T10:17:15;11.57;;;9.48;;
70213;SDS011;60138;55.808;37.078;2024-03-23T10:19:48;13.45;;;8.65;;
70213;SDS011;60138;55.808;37.078;2024-03-23T10:22:22;11.27;;;8.43;;
70213;SDS011;60138;55.808;37.078;2024-03-23T10:24:49;14.15;;;9.25;;
70213;SDS011;60138;55.808;37.078;2024-03-23T10:27:15;11.98;;;8.50;;
70213;SDS011;60138;55.808;37.078;2024-03-23T10:29:42;10.60;;;7.20;;
70213;SDS011;60138;55.808;37.078;2024-03-23T10:32:11;11.52;;;8.48;;
70213;SDS011;60138;55.808;37.078;2024-03-23T10:34:37;12.07;;;8.40;;
70213;SDS011;60138;55.808;37.078;2024-03-23T10:37:04;11.30;;;7.55;;
70213;SDS011;60138;55.808;37.078;2024-03-23T10:39:34;10.83;;;8.17;;
70213;SDS011;60138;55.808;37.078;2024-03-23T10:42:05;11.88;;;8.23;;
70213;SDS011;60138;55.808;37.078;2024-03-23T10:44:32;10.93;;;8.20;;
70213;SDS011;60138;55.808;37.078;2024-03-23T10:46:58;11.95;;;8.27;;
70213;SDS011;60138;55.808;37.078;2024-03-23T10:49:25;12.07;;;8.07;;
70213;SDS011;60138;55.808;37.078;2024-03-23T10:51:51;10.38;;;7.88;;
70213;SDS011;60138;55.808;37.078;2024-03-23T10:54:18;10.40;;;8.25;;
70213;SDS011;60138;55.808;37.078;2024-03-23T10:56:45;16.85;;;9.55;;
70213;SDS011;60138;55.808;37.078;2024-03-23T10:59:13;12.57;;;8.73;;
70213;SDS011;60138;55.808;37.078;2024-03-23T11:01:56;12.63;;;9.43;;
70213;SDS011;60138;55.808;37.078;2024-03-23T11:04:35;12.20;;;8.63;;
70213;SDS011;60138;55.808;37.078;2024-03-23T11:07:02;11.82;;;8.27;;
70213;SDS011;60138;55.808;37.078;2024-03-23T11:14:47;12.80;;;8.75;;
70213;SDS011;60138;55.808;37.078;2024-03-23T11:17:13;11.07;;;8.30;;
70213;SDS011;60138;55.808;37.078;2024-03-23T11:19:44;9.18;;;6.80;;
70213;SDS011;60138;55.808;37.078;2024-03-23T11:22:09;12.23;;;8.50;;
70213;SDS011;60138;55.808;37.078;2024-03-23T11:24:35;12.63;;;7.78;;
70213;SDS011;60138;55.808;37.078;2024-03-23T11:27:01;12.70;;;8.23;;
70213;SDS011;60138;55.808;37.078;2024-03-23T11:29:27;12.07;;;8.60;;
70213;SDS011;60138;55.808;37.078;2024-03-23T11:31:53;12.60;;;8.63;;
70213;SDS011;60138;55.808;37.078;2024-03-23T11:34:19;12.10;;;8.77;;
70213;SDS011;60138;55.808;37.078;2024-03-23T11:36:46;11.10;;;8.18;;
70213;SDS011;60138;55.808;37.078;2024-03-23T11:41:55;11.13;;;7.78;;
70213;SDS011;60138;55.808;37.078;2024-03-23T11:44:23;12.23;;;8.30;;
70213;SDS011;60138;55.808;37.078;2024-03-23T11:46:51;10.37;;;7.37;;
70213;SDS011;60138;55.808;37.078;2024-03-23T11:49:32;10.68;;;7.95;;
70213;SDS011;60138;55.808;37.078;2024-03-23T11:51:58;12.80;;;8.18;;
70213;SDS011;60138;55.808;37.078;2024-03-23T11:54:24;11.50;;;8.47;;
70213;SDS011;60138;55.808;37.078;2024-03-23T11:57:08;11.90;;;7.72;;
70213;SDS011;60138;55.808;37.078;2024-03-23T11:59:38;11.75;;;7.78;;
70213;SDS011;60138;55.808;37.078;2024-03-23T12:02:06;11.90;;;8.67;;
70213;SDS011;60138;55.808;37.078;2024-03-23T12:04:37;11.93;;;8.32;;
70213;SDS011;60138;55.808;37.078;2024-03-23T12:07:13;12.38;;;8.52;;
70213;SDS011;60138;55.808;37.078;2024-03-23T12:09:39;11.40;;;8.43;;
70213;SDS011;60138;55.808;37.078;2024-03-23T12:12:26;10.50;;;7.78;;
70213;SDS011;60138;55.808;37.078;2024-03-23T12:15:04;11.37;;;8.60;;
70213;SDS011;60138;55.808;37.078;2024-03-23T12:17:31;12.30;;;8.93;;
70213;SDS011;60138;55.808;37.078;2024-03-23T12:19:57;13.07;;;9.10;;
70213;SDS011;60138;55.808;37.078;2024-03-23T12:22:23;12.63;;;8.45;;
70213;SDS011;60138;55.808;37.078;2024-03-23T12:24:50;12.63;;;9.20;;
70213;SDS011;60138;55.808;37.078;2024-03-23T12:27:16;12.68;;;8.65;;
70213;SDS011;60138;55.808;37.078;2024-03-23T12:29:42;12.00;;;8.63;;
70213;SDS011;60138;55.808;37.078;2024-03-23T12:32:07;13.52;;;9.18;;
70213;SDS011;60138;55.808;37.078;2024-03-23T12:34:33;11.43;;;8.35;;
70213;SDS011;60138;55.808;37.078;2024-03-23T12:36:59;12.47;;;8.30;;
70213;SDS011;60138;55.808;37.078;2024-03-23T12:39:25;13.40;;;9.82;;
70213;SDS011;60138;55.808;37.078;2024-03-23T12:41:50;12.40;;;8.30;;
70213;SDS011;60138;55.808;37.078;2024-03-23T12:44:16;11.75;;;8.43;;
70213;SDS011;60138;55.808;37.078;2024-03-23T12:46:42;12.83;;;9.00;;
70213;SDS011;60138;55.808;37.078;2024-03-23T12:49:08;13.10;;;8.40;;
70213;SDS011;60138;55.808;37.078;2024-03-23T12:51:34;13.95;;;9.25;;
70213;SDS011;60138;55.808;37.078;2024-03-23T12:54:00;12.00;;;8.40;;
70213;SDS011;60138;55.808;37.078;2024-03-23T12:56:25;10.45;;;7.47;;
70213;SDS011;60138;55.808;37.078;2024-03-23T12:58:51;10.23;;;7.87;;
70213;SDS011;60138;55.808;37.078;2024-03-23T13:01:22;11.10;;;7.70;;
70213;SDS011;60138;55.808;37.078;2024-03-23T13:03:52;11.73;;;8.23;;
70213;SDS011;60138;55.808;37.078;2024-03-23T13:06:18;11.57;;;8.50;;
70213;SDS011;60138;55.808;37.078;2024-03-23T13:08:45;12.30;;;8.30;;
70213;SDS011;60138;55.808;37.078;2024-03-23T13:11:11;12.47;;;8.63;;
70213;SDS011;60138;55.808;37.078;2024-03-23T13:13:37;11.18;;;7.28;;
70213;SDS011;60138;55.808;37.078;2024-03-23T13:16:03;11.90;;;8.55;;
70213;SDS011;60138;55.808;37.078;2024-03-23T13:18:30;11.15;;;7.90;;
70213;SDS011;60138;55.808;37.078;2024-03-23T13:20:56;11.35;;;8.38;;
70213;SDS011;60138;55.808;37.078;2024-03-23T13:23:21;11.67;;;9.47;;
70213;SDS011;60138;55.808;37.078;2024-03-23T13:25:51;10.75;;;8.00;;
70213;SDS011;60138;55.808;37.078;2024-03-23T13:28:17;11.27;;;8.05;;
70213;SDS011;60138;55.808;37.078;2024-03-23T13:30:49;12.40;;;7.85;;
70213;SDS011;60138;55.808;37.078;2024-03-23T13:33:18;11.73;;;8.20;;
70213;SDS011;60138;55.808;37.078;2024-03-23T13:38:19;11.13;;;7.93;;
70213;SDS011;60138;55.808;37.078;2024-03-23T13:40:52;10.25;;;8.13;;
70213;SDS011;60138;55.808;37.078;2024-03-23T13:43:19;10.98;;;7.43;;
70213;SDS011;60138;55.808;37.078;2024-03-23T13:45:46;11.67;;;8.53;;
70213;SDS011;60138;55.808;37.078;2024-03-23T13:48:13;9.75;;;7.32;;
70213;SDS011;60138;55.808;37.078;2024-03-23T13:50:39;9.80;;;7.32;;
70213;SDS011;60138;55.808;37.078;2024-03-23T13:53:06;10.38;;;7.65;;
70213;SDS011;60138;55.808;37.078;2024-03-23T13:55:32;10.47;;;7.57;;
70213;SDS011;60138;55.808;37.078;2024-03-23T13:57:57;11.15;;;7.78;;
70213;SDS011;60138;55.808;37.078;2024-03-23T14:00:23;12.00;;;7.10;;
70213;SDS011;60138;55.808;37.078;2024-03-23T14:02:49;10.93;;;7.80;;
70213;SDS011;60138;55.808;37.078;2024-03-23T14:05:15;11.93;;;8.17;;
70213;SDS011;60138;55.808;37.078;2024-03-23T14:07:40;9.93;;;7.43;;
70213;SDS011;60138;55.808;37.078;2024-03-23T14:10:06;9.77;;;7.60;;
70213;SDS011;60138;55.808;37.078;2024-03-23T14:12:32;10.38;;;7.70;;
70213;SDS011;60138;55.808;37.078;2024-03-23T14:14:58;9.80;;;7.13;;
70213;SDS011;60138;55.808;37.078;2024-03-23T14:17:24;9.50;;;7.47;;
70213;SDS011;60138;55.808;37.078;2024-03-23T14:19:49;10.10;;;8.13;;
70213;SDS011;60138;55.808;37.078;2024-03-23T14:22:15;10.60;;;7.47;;
70213;SDS011;60138;55.808;37.078;2024-03-23T14:24:41;10.25;;;7.05;;
70213;SDS011;60138;55.808;37.078;2024-03-23T14:27:07;10.40;;;7.43;;
70213;SDS011;60138;55.808;37.078;2024-03-23T14:29:32;10.23;;;7.20;;
70213;SDS011;60138;55.808;37.078;2024-03-23T14:31:58;9.68;;;6.85;;
70213;SDS011;60138;55.808;37.078;2024-03-23T14:34:25;8.95;;;6.60;;
70213;SDS011;60138;55.808;37.078;2024-03-23T14:36:51;8.82;;;7.20;;
70213;SDS011;60138;55.808;37.078;2024-03-23T14:39:17;9.27;;;7.07;;
70213;SDS011;60138;55.808;37.078;2024-03-23T14:41:43;9.20;;;7.10;;
70213;SDS011;60138;55.808;37.078;2024-03-23T14:44:08;10.27;;;7.38;;
70213;SDS011;60138;55.808;37.078;2024-03-23T14:46:34;9.83;;;7.00;;
70213;SDS011;60138;55.808;37.078;2024-03-23T14:49:00;9.55;;;7.30;;
70213;SDS011;60138;55.808;37.078;2024-03-23T14:51:25;11.13;;;7.50;;
70213;SDS011;60138;55.808;37.078;2024-03-23T14:53:51;9.75;;;7.63;;
70213;SDS011;60138;55.808;37.078;2024-03-23T14:56:17;10.37;;;7.63;;
70213;SDS011;60138;55.808;37.078;2024-03-23T14:58:43;8.88;;;6.68;;
70213;SDS011;60138;55.808;37.078;2024-03-23T15:01:09;8.93;;;7.20;;
70213;SDS011;60138;55.808;37.078;2024-03-23T15:03:36;8.52;;;6.55;;
70213;SDS011;60138;55.808;37.078;2024-03-23T15:06:06;9.63;;;7.40;;
70213;SDS011;60138;55.808;37.078;2024-03-23T15:08:32;9.75;;;7.82;;
70213;SDS011;60138;55.808;37.078;2024-03-23T15:10:58;9.53;;;6.40;;
70213;SDS011;60138;55.808;37.078;2024-03-23T15:13:25;9.90;;;7.03;;
70213;SDS011;60138;55.808;37.078;2024-03-23T15:15:50;10.70;;;6.90;;
70213;SDS011;60138;55.808;37.078;2024-03-23T15:18:16;10.43;;;7.20;;